sensor_id;sensor_type;location;lat;lon;timestamp;P1;durP1;ratioP1;P2;durP2;ratioP2
35745;SDS011;21870;42.812;74.628;2024-01-16T00:01:59;68.22;;;48.38;;
35745;SDS011;21870;42.812;74.628;2024-01-16T00:04:25;67.57;;;48.55;;
35745;SDS011;21870;42.812;74.628;2024-01-16T00:06:52;79.75;;;53.28;;
35745;SDS011;21870;42.812;74.628;2024-01-16T00:09:18;87.65;;;59.30;;
35745;SDS011;21870;42.812;74.628;2024-01-16T00:11:44;82.35;;;56.63;;
35745;SDS011;21870;42.812;74.628;2024-01-16T00:14:10;85.70;;;55.08;;
35745;SDS011;21870;42.812;74.628;2024-01-16T00:16:45;82.20;;;53.78;;
35745;SDS011;21870;42.812;74.628;2024-01-16T00:19:13;89.82;;;58.67;;
35745;SDS011;21870;42.812;74.628;2024-01-16T00:21:39;93.55;;;58.08;;
35745;SDS011;21870;42.812;74.628;2024-01-16T00:24:06;95.63;;;62.45;;
35745;SDS011;21870;42.812;74.628;2024-01-16T00:26:32;92.28;;;58.33;;
35745;SDS011;21870;42.812;74.628;2024-01-16T00:28:58;88.05;;;59.42;;
35745;SDS011;21870;42.812;74.628;2024-01-16T00:31:24;80.90;;;54.35;;
35745;SDS011;21870;42.812;74.628;2024-01-16T00:33:51;93.45;;;60.55;;
35745;SDS011;21870;42.812;74.628;2024-01-16T00:36:16;106.25;;;61.67;;
35745;SDS011;21870;42.812;74.628;2024-01-16T00:38:42;98.00;;;61.30;;
35745;SDS011;21870;42.812;74.628;2024-01-16T00:41:09;93.03;;;60.95;;
35745;SDS011;21870;42.812;74.628;2024-01-16T00:43:35;106.97;;;65.43;;
35745;SDS011;21870;42.812;74.628;2024-01-16T00:46:01;105.68;;;63.00;;
35745;SDS011;21870;42.812;74.628;2024-01-16T00:48:27;102.13;;;65.00;;
35745;SDS011;21870;42.812;74.628;2024-01-16T00:50:53;111.95;;;65.80;;
35745;SDS011;21870;42.812;74.628;2024-01-16T00:53:19;103.93;;;61.70;;
35745;SDS011;21870;42.812;74.628;2024-01-16T00:55:45;112.38;;;68.97;;
35745;SDS011;21870;42.812;74.628;2024-01-16T00:58:11;111.10;;;66.72;;
35745;SDS011;21870;42.812;74.628;2024-01-16T01:00:37;123.38;;;72.90;;
35745;SDS011;21870;42.812;74.628;2024-01-16T01:03:04;108.22;;;66.13;;
35745;SDS011;21870;42.812;74.628;2024-01-16T01:05:30;109.13;;;64.25;;
35745;SDS011;21870;42.812;74.628;2024-01-16T01:07:56;107.18;;;62.17;;
35745;SDS011;21870;42.812;74.628;2024-01-16T01:10:23;113.63;;;68.03;;
35745;SDS011;21870;42.812;74.628;2024-01-16T01:12:49;117.65;;;69.45;;
35745;SDS011;21870;42.812;74.628;2024-01-16T01:15:19;113.68;;;66.45;;
35745;SDS011;21870;42.812;74.628;2024-01-16T01:17:47;104.85;;;65.20;;
35745;SDS011;21870;42.812;74.628;2024-01-16T01:20:14;117.85;;;69.45;;
35745;SDS011;21870;42.812;74.628;2024-01-16T01:22:40;126.78;;;73.75;;
35745;SDS011;21870;42.812;74.628;2024-01-16T01:25:07;109.15;;;67.03;;
35745;SDS011;21870;42.812;74.628;2024-01-16T01:27:33;125.18;;;69.60;;
35745;SDS011;21870;42.812;74.628;2024-01-16T01:29:59;124.43;;;74.00;;
35745;SDS011;21870;42.812;74.628;2024-01-16T01:32:25;120.95;;;69.05;;
35745;SDS011;21870;42.812;74.628;2024-01-16T01:34:52;120.97;;;67.72;;
35745;SDS011;21870;42.812;74.628;2024-01-16T01:37:18;127.70;;;73.53;;
35745;SDS011;21870;42.812;74.628;2024-01-16T01:39:44;121.20;;;66.72;;
35745;SDS011;21870;42.812;74.628;2024-01-16T01:42:10;112.35;;;66.43;;
35745;SDS011;21870;42.812;74.628;2024-01-16T01:44:36;123.72;;;71.35;;
35745;SDS011;21870;42.812;74.628;2024-01-16T01:47:02;121.80;;;70.38;;
35745;SDS011;21870;42.812;74.628;2024-01-16T01:49:30;124.88;;;72.05;;
35745;SDS011;21870;42.812;74.628;2024-01-16T01:51:57;119.95;;;68.78;;
35745;SDS011;21870;42.812;74.628;2024-01-16T01:54:23;123.70;;;71.68;;
35745;SDS011;21870;42.812;74.628;2024-01-16T01:56:51;122.65;;;69.93;;
35745;SDS011;21870;42.812;74.628;2024-01-16T01:59:17;118.78;;;68.88;;
35745;SDS011;21870;42.812;74.628;2024-01-16T02:01:45;115.68;;;67.75;;
35745;SDS011;21870;42.812;74.628;2024-01-16T02:04:15;120.68;;;69.82;;
35745;SDS011;21870;42.812;74.628;2024-01-16T02:06:43;117.18;;;65.85;;
35745;SDS011;21870;42.812;74.628;2024-01-16T02:09:09;127.15;;;70.35;;
35745;SDS011;21870;42.812;74.628;2024-01-16T02:11:41;121.13;;;71.00;;
35745;SDS011;21870;42.812;74.628;2024-01-16T02:14:08;114.78;;;69.55;;
35745;SDS011;21870;42.812;74.628;2024-01-16T02:16:38;123.15;;;70.25;;
35745;SDS011;21870;42.812;74.628;2024-01-16T02:19:06;122.78;;;70.72;;
35745;SDS011;21870;42.812;74.628;2024-01-16T02:21:36;117.80;;;70.95;;
35745;SDS011;21870;42.812;74.628;2024-01-16T02:24:11;119.20;;;69.75;;
35745;SDS011;21870;42.812;74.628;2024-01-16T02:26:39;119.07;;;69.22;;
35745;SDS011;21870;42.812;74.628;2024-01-16T02:29:05;113.03;;;69.25;;
35745;SDS011;21870;42.812;74.628;2024-01-16T02:31:31;112.88;;;67.50;;
35745;SDS011;21870;42.812;74.628;2024-01-16T02:33:58;127.60;;;72.25;;
35745;SDS011;21870;42.812;74.628;2024-01-16T02:36:24;115.40;;;69.97;;
35745;SDS011;21870;42.812;74.628;2024-01-16T02:38:51;112.28;;;65.40;;
35745;SDS011;21870;42.812;74.628;2024-01-16T02:41:18;122.90;;;72.15;;
35745;SDS011;21870;42.812;74.628;2024-01-16T02:43:45;117.10;;;69.53;;
35745;SDS011;21870;42.812;74.628;2024-01-16T02:46:11;120.53;;;72.38;;
35745;SDS011;21870;42.812;74.628;2024-01-16T02:48:38;127.95;;;75.38;;
35745;SDS011;21870;42.812;74.628;2024-01-16T02:51:04;122.50;;;73.70;;
35745;SDS011;21870;42.812;74.628;2024-01-16T02:53:30;123.82;;;73.63;;
35745;SDS011;21870;42.812;74.628;2024-01-16T02:55:57;132.93;;;77.85;;
35745;SDS011;21870;42.812;74.628;2024-01-16T02:58:26;125.88;;;74.68;;
35745;SDS011;21870;42.812;74.628;2024-01-16T03:00:53;142.30;;;81.13;;
35745;SDS011;21870;42.812;74.628;2024-01-16T03:03:20;132.63;;;76.82;;
35745;SDS011;21870;42.812;74.628;2024-01-16T03:05:46;135.73;;;83.03;;
35745;SDS011;21870;42.812;74.628;2024-01-16T03:08:12;132.32;;;80.70;;
35745;SDS011;21870;42.812;74.628;2024-01-16T03:10:39;145.85;;;86.90;;
35745;SDS011;21870;42.812;74.628;2024-01-16T03:13:05;150.05;;;85.75;;
35745;SDS011;21870;42.812;74.628;2024-01-16T03:15:31;167.73;;;99.05;;
35745;SDS011;21870;42.812;74.628;2024-01-16T03:17:57;173.57;;;103.30;;
35745;SDS011;21870;42.812;74.628;2024-01-16T03:20:24;157.60;;;91.45;;
35745;SDS011;21870;42.812;74.628;2024-01-16T03:22:50;153.07;;;85.22;;
35745;SDS011;21870;42.812;74.628;2024-01-16T03:25:16;144.25;;;80.32;;
35745;SDS011;21870;42.812;74.628;2024-01-16T03:27:42;134.05;;;77.75;;
35745;SDS011;21870;42.812;74.628;2024-01-16T03:30:09;136.18;;;77.90;;
35745;SDS011;21870;42.812;74.628;2024-01-16T03:32:35;136.15;;;77.57;;
35745;SDS011;21870;42.812;74.628;2024-01-16T03:35:02;140.40;;;80.82;;
35745;SDS011;21870;42.812;74.628;2024-01-16T03:37:28;130.93;;;77.72;;
35745;SDS011;21870;42.812;74.628;2024-01-16T03:39:54;143.05;;;78.00;;
35745;SDS011;21870;42.812;74.628;2024-01-16T03:42:22;121.05;;;71.53;;
35745;SDS011;21870;42.812;74.628;2024-01-16T03:44:48;140.57;;;80.18;;
35745;SDS011;21870;42.812;74.628;2024-01-16T03:47:14;116.45;;;68.40;;
35745;SDS011;21870;42.812;74.628;2024-01-16T03:49:41;114.75;;;69.88;;
35745;SDS011;21870;42.812;74.628;2024-01-16T03:52:07;120.53;;;70.65;;
35745;SDS011;21870;42.812;74.628;2024-01-16T03:54:33;125.07;;;71.18;;
35745;SDS011;21870;42.812;74.628;2024-01-16T03:56:59;124.15;;;70.82;;
35745;SDS011;21870;42.812;74.628;2024-01-16T03:59:26;119.30;;;68.80;;
35745;SDS011;21870;42.812;74.628;2024-01-16T04:01:52;117.32;;;72.40;;
35745;SDS011;21870;42.812;74.628;2024-01-16T04:04:18;123.80;;;74.95;;
35745;SDS011;21870;42.812;74.628;2024-01-16T04:06:44;118.00;;;70.10;;
35745;SDS011;21870;42.812;74.628;2024-01-16T04:09:11;135.38;;;77.95;;
35745;SDS011;21870;42.812;74.628;2024-01-16T04:11:39;117.53;;;67.75;;
35745;SDS011;21870;42.812;74.628;2024-01-16T04:14:05;130.25;;;72.80;;
35745;SDS011;21870;42.812;74.628;2024-01-16T04:16:31;116.22;;;71.60;;
35745;SDS011;21870;42.812;74.628;2024-01-16T04:18:57;122.60;;;75.05;;
35745;SDS011;21870;42.812;74.628;2024-01-16T04:21:24;118.15;;;67.38;;
35745;SDS011;21870;42.812;74.628;2024-01-16T04:23:50;112.38;;;64.78;;
35745;SDS011;21870;42.812;74.628;2024-01-16T04:26:17;116.85;;;66.72;;
35745;SDS011;21870;42.812;74.628;2024-01-16T04:28:43;125.63;;;69.43;;
35745;SDS011;21870;42.812;74.628;2024-01-16T04:31:09;119.75;;;69.22;;
35745;SDS011;21870;42.812;74.628;2024-01-16T04:33:39;118.40;;;71.22;;
35745;SDS011;21870;42.812;74.628;2024-01-16T04:36:06;129.38;;;76.25;;
35745;SDS011;21870;42.812;74.628;2024-01-16T04:38:32;132.38;;;78.93;;
35745;SDS011;21870;42.812;74.628;2024-01-16T04:41:00;145.73;;;84.20;;
35745;SDS011;21870;42.812;74.628;2024-01-16T04:43:30;139.07;;;85.45;;
35745;SDS011;21870;42.812;74.628;2024-01-16T04:45:56;135.43;;;80.70;;
35745;SDS011;21870;42.812;74.628;2024-01-16T04:48:22;158.43;;;88.93;;
35745;SDS011;21870;42.812;74.628;2024-01-16T04:50:48;145.13;;;82.13;;
35745;SDS011;21870;42.812;74.628;2024-01-16T04:53:13;138.45;;;82.72;;
35745;SDS011;21870;42.812;74.628;2024-01-16T04:55:40;147.15;;;82.90;;
35745;SDS011;21870;42.812;74.628;2024-01-16T04:58:06;152.73;;;88.38;;
35745;SDS011;21870;42.812;74.628;2024-01-16T05:00:32;151.93;;;86.47;;
35745;SDS011;21870;42.812;74.628;2024-01-16T05:02:58;140.88;;;82.13;;
35745;SDS011;21870;42.812;74.628;2024-01-16T05:05:24;128.55;;;75.78;;
35745;SDS011;21870;42.812;74.628;2024-01-16T05:07:50;137.05;;;80.80;;
35745;SDS011;21870;42.812;74.628;2024-01-16T05:10:16;158.52;;;93.80;;
35745;SDS011;21870;42.812;74.628;2024-01-16T05:12:42;152.90;;;95.55;;
35745;SDS011;21870;42.812;74.628;2024-01-16T05:15:08;169.02;;;98.63;;
35745;SDS011;21870;42.812;74.628;2024-01-16T05:17:36;145.27;;;89.03;;
35745;SDS011;21870;42.812;74.628;2024-01-16T05:20:03;125.07;;;75.70;;
35745;SDS011;21870;42.812;74.628;2024-01-16T05:22:30;123.45;;;74.82;;
35745;SDS011;21870;42.812;74.628;2024-01-16T05:24:56;113.38;;;71.22;;
35745;SDS011;21870;42.812;74.628;2024-01-16T05:27:22;113.53;;;71.82;;
35745;SDS011;21870;42.812;74.628;2024-01-16T05:29:48;119.85;;;74.93;;
35745;SDS011;21870;42.812;74.628;2024-01-16T05:32:14;122.93;;;75.05;;
35745;SDS011;21870;42.812;74.628;2024-01-16T05:34:40;116.55;;;70.78;;
35745;SDS011;21870;42.812;74.628;2024-01-16T05:37:06;121.45;;;71.85;;
35745;SDS011;21870;42.812;74.628;2024-01-16T05:39:32;123.22;;;73.68;;
35745;SDS011;21870;42.812;74.628;2024-01-16T05:41:57;105.93;;;67.47;;
35745;SDS011;21870;42.812;74.628;2024-01-16T05:44:24;105.85;;;64.60;;
35745;SDS011;21870;42.812;74.628;2024-01-16T05:46:50;109.10;;;69.65;;
35745;SDS011;21870;42.812;74.628;2024-01-16T05:49:16;116.15;;;73.43;;
35745;SDS011;21870;42.812;74.628;2024-01-16T05:51:42;117.85;;;72.63;;
35745;SDS011;21870;42.812;74.628;2024-01-16T05:54:08;108.63;;;66.38;;
35745;SDS011;21870;42.812;74.628;2024-01-16T05:56:34;104.38;;;66.88;;
35745;SDS011;21870;42.812;74.628;2024-01-16T05:59:00;117.90;;;72.25;;
35745;SDS011;21870;42.812;74.628;2024-01-16T06:01:26;123.10;;;78.47;;
35745;SDS011;21870;42.812;74.628;2024-01-16T06:03:54;133.80;;;82.78;;
35745;SDS011;21870;42.812;74.628;2024-01-16T06:06:20;127.50;;;81.70;;
35745;SDS011;21870;42.812;74.628;2024-01-16T06:08:46;130.57;;;87.30;;
35745;SDS011;21870;42.812;74.628;2024-01-16T06:11:12;134.95;;;85.88;;
35745;SDS011;21870;42.812;74.628;2024-01-16T06:13:39;138.60;;;88.93;;
35745;SDS011;21870;42.812;74.628;2024-01-16T06:16:08;148.35;;;92.30;;
35745;SDS011;21870;42.812;74.628;2024-01-16T06:18:34;145.35;;;90.10;;
35745;SDS011;21870;42.812;74.628;2024-01-16T06:21:01;146.75;;;94.05;;
35745;SDS011;21870;42.812;74.628;2024-01-16T06:23:28;151.13;;;95.72;;
35745;SDS011;21870;42.812;74.628;2024-01-16T06:25:54;141.63;;;92.28;;
35745;SDS011;21870;42.812;74.628;2024-01-16T06:28:20;164.05;;;101.75;;
35745;SDS011;21870;42.812;74.628;2024-01-16T06:30:46;150.93;;;98.13;;
35745;SDS011;21870;42.812;74.628;2024-01-16T06:33:12;155.05;;;96.43;;
35745;SDS011;21870;42.812;74.628;2024-01-16T06:35:38;169.60;;;103.88;;
35745;SDS011;21870;42.812;74.628;2024-01-16T06:38:04;162.02;;;99.85;;
35745;SDS011;21870;42.812;74.628;2024-01-16T06:40:30;160.57;;;100.07;;
35745;SDS011;21870;42.812;74.628;2024-01-16T06:42:56;162.73;;;102.70;;
35745;SDS011;21870;42.812;74.628;2024-01-16T06:45:21;164.13;;;97.75;;
35745;SDS011;21870;42.812;74.628;2024-01-16T06:47:47;165.75;;;102.68;;
35745;SDS011;21870;42.812;74.628;2024-01-16T06:50:13;172.02;;;103.15;;
35745;SDS011;21870;42.812;74.628;2024-01-16T06:52:39;176.20;;;105.55;;
35745;SDS011;21870;42.812;74.628;2024-01-16T06:55:05;167.45;;;98.22;;
35745;SDS011;21870;42.812;74.628;2024-01-16T06:57:31;165.07;;;101.60;;
35745;SDS011;21870;42.812;74.628;2024-01-16T06:59:57;178.27;;;106.78;;
35745;SDS011;21870;42.812;74.628;2024-01-16T07:02:23;172.43;;;106.22;;
35745;SDS011;21870;42.812;74.628;2024-01-16T07:04:49;183.65;;;104.53;;
35745;SDS011;21870;42.812;74.628;2024-01-16T07:07:15;180.45;;;105.65;;
35745;SDS011;21870;42.812;74.628;2024-01-16T07:09:41;174.13;;;105.07;;
35745;SDS011;21870;42.812;74.628;2024-01-16T07:12:07;183.13;;;108.10;;
35745;SDS011;21870;42.812;74.628;2024-01-16T07:14:33;191.10;;;111.90;;
35745;SDS011;21870;42.812;74.628;2024-01-16T07:16:59;180.70;;;110.03;;
35745;SDS011;21870;42.812;74.628;2024-01-16T07:19:25;182.10;;;111.93;;
35745;SDS011;21870;42.812;74.628;2024-01-16T07:21:51;182.00;;;109.25;;
35745;SDS011;21870;42.812;74.628;2024-01-16T07:24:17;172.65;;;107.55;;
35745;SDS011;21870;42.812;74.628;2024-01-16T07:26:43;182.25;;;111.53;;
35745;SDS011;21870;42.812;74.628;2024-01-16T07:29:09;181.00;;;110.82;;
35745;SDS011;21870;42.812;74.628;2024-01-16T07:31:35;185.18;;;115.72;;
35745;SDS011;21870;42.812;74.628;2024-01-16T07:34:01;194.93;;;118.18;;
35745;SDS011;21870;42.812;74.628;2024-01-16T07:36:27;178.82;;;112.32;;
35745;SDS011;21870;42.812;74.628;2024-01-16T07:38:53;194.20;;;116.70;;
35745;SDS011;21870;42.812;74.628;2024-01-16T07:41:19;190.90;;;117.32;;
35745;SDS011;21870;42.812;74.628;2024-01-16T07:43:44;186.07;;;117.13;;
35745;SDS011;21870;42.812;74.628;2024-01-16T07:46:11;198.20;;;116.97;;
35745;SDS011;21870;42.812;74.628;2024-01-16T07:48:37;191.15;;;118.85;;
35745;SDS011;21870;42.812;74.628;2024-01-16T07:51:03;181.45;;;114.40;;
35745;SDS011;21870;42.812;74.628;2024-01-16T07:53:29;191.25;;;119.50;;
35745;SDS011;21870;42.812;74.628;2024-01-16T07:55:55;186.52;;;118.10;;
35745;SDS011;21870;42.812;74.628;2024-01-16T07:58:21;206.55;;;123.53;;
35745;SDS011;21870;42.812;74.628;2024-01-16T08:00:47;187.40;;;116.55;;
35745;SDS011;21870;42.812;74.628;2024-01-16T08:03:13;192.05;;;121.47;;
35745;SDS011;21870;42.812;74.628;2024-01-16T08:05:39;191.25;;;116.45;;
35745;SDS011;21870;42.812;74.628;2024-01-16T08:08:08;185.45;;;117.88;;
35745;SDS011;21870;42.812;74.628;2024-01-16T08:10:35;203.48;;;125.70;;
35745;SDS011;21870;42.812;74.628;2024-01-16T08:13:00;180.38;;;114.68;;
35745;SDS011;21870;42.812;74.628;2024-01-16T08:15:26;183.93;;;117.07;;
35745;SDS011;21870;42.812;74.628;2024-01-16T08:17:52;190.48;;;115.47;;
35745;SDS011;21870;42.812;74.628;2024-01-16T08:20:18;182.95;;;115.13;;
35745;SDS011;21870;42.812;74.628;2024-01-16T08:22:44;188.30;;;115.85;;
35745;SDS011;21870;42.812;74.628;2024-01-16T08:25:10;178.05;;;109.75;;
35745;SDS011;21870;42.812;74.628;2024-01-16T08:27:36;196.02;;;114.70;;
35745;SDS011;21870;42.812;74.628;2024-01-16T08:30:03;179.75;;;109.40;;
35745;SDS011;21870;42.812;74.628;2024-01-16T08:32:30;189.65;;;111.97;;
35745;SDS011;21870;42.812;74.628;2024-01-16T08:34:57;197.77;;;114.80;;
35745;SDS011;21870;42.812;74.628;2024-01-16T08:37:23;193.20;;;113.28;;
35745;SDS011;21870;42.812;74.628;2024-01-16T08:39:50;181.95;;;110.32;;
35745;SDS011;21870;42.812;74.628;2024-01-16T08:42:16;182.85;;;108.63;;
35745;SDS011;21870;42.812;74.628;2024-01-16T08:44:43;176.25;;;101.75;;
35745;SDS011;21870;42.812;74.628;2024-01-16T08:47:09;185.32;;;110.80;;
35745;SDS011;21870;42.812;74.628;2024-01-16T08:49:35;166.45;;;99.90;;
35745;SDS011;21870;42.812;74.628;2024-01-16T08:52:03;177.45;;;103.47;;
35745;SDS011;21870;42.812;74.628;2024-01-16T08:54:30;169.90;;;99.65;;
35745;SDS011;21870;42.812;74.628;2024-01-16T08:56:56;162.48;;;94.88;;
35745;SDS011;21870;42.812;74.628;2024-01-16T08:59:23;151.43;;;91.10;;
35745;SDS011;21870;42.812;74.628;2024-01-16T09:01:49;159.60;;;93.40;;
35745;SDS011;21870;42.812;74.628;2024-01-16T09:04:16;168.57;;;97.78;;
35745;SDS011;21870;42.812;74.628;2024-01-16T09:06:42;155.48;;;93.03;;
35745;SDS011;21870;42.812;74.628;2024-01-16T09:09:08;175.77;;;101.03;;
35745;SDS011;21870;42.812;74.628;2024-01-16T09:11:34;165.73;;;95.13;;
35745;SDS011;21870;42.812;74.628;2024-01-16T09:14:00;156.20;;;95.32;;
35745;SDS011;21870;42.812;74.628;2024-01-16T09:16:26;156.75;;;93.30;;
35745;SDS011;21870;42.812;74.628;2024-01-16T09:18:52;160.65;;;93.07;;
35745;SDS011;21870;42.812;74.628;2024-01-16T09:21:19;160.43;;;92.85;;
35745;SDS011;21870;42.812;74.628;2024-01-16T09:23:46;174.68;;;99.97;;
35745;SDS011;21870;42.812;74.628;2024-01-16T09:26:12;162.90;;;97.93;;
35745;SDS011;21870;42.812;74.628;2024-01-16T09:28:38;162.98;;;95.80;;
35745;SDS011;21870;42.812;74.628;2024-01-16T09:31:05;158.15;;;94.28;;
35745;SDS011;21870;42.812;74.628;2024-01-16T09:33:31;169.25;;;98.38;;
35745;SDS011;21870;42.812;74.628;2024-01-16T09:35:58;170.98;;;98.22;;
35745;SDS011;21870;42.812;74.628;2024-01-16T09:38:24;159.60;;;95.68;;
35745;SDS011;21870;42.812;74.628;2024-01-16T09:40:51;164.95;;;95.40;;
35745;SDS011;21870;42.812;74.628;2024-01-16T09:43:17;157.38;;;91.65;;
35745;SDS011;21870;42.812;74.628;2024-01-16T09:45:45;177.93;;;99.97;;
35745;SDS011;21870;42.812;74.628;2024-01-16T09:48:14;171.63;;;96.85;;
35745;SDS011;21870;42.812;74.628;2024-01-16T09:50:40;162.10;;;91.85;;
35745;SDS011;21870;42.812;74.628;2024-01-16T09:53:06;161.05;;;92.65;;
35745;SDS011;21870;42.812;74.628;2024-01-16T09:55:32;189.55;;;103.75;;
35745;SDS011;21870;42.812;74.628;2024-01-16T09:57:58;168.68;;;101.13;;
35745;SDS011;21870;42.812;74.628;2024-01-16T10:00:25;186.27;;;100.20;;
35745;SDS011;21870;42.812;74.628;2024-01-16T10:02:52;191.18;;;107.35;;
35745;SDS011;21870;42.812;74.628;2024-01-16T10:05:23;201.45;;;110.07;;
35745;SDS011;21870;42.812;74.628;2024-01-16T10:07:50;190.57;;;104.05;;
35745;SDS011;21870;42.812;74.628;2024-01-16T10:10:17;178.60;;;103.85;;
35745;SDS011;21870;42.812;74.628;2024-01-16T10:12:45;193.40;;;106.22;;
35745;SDS011;21870;42.812;74.628;2024-01-16T10:15:15;199.57;;;111.82;;
35745;SDS011;21870;42.812;74.628;2024-01-16T10:17:41;193.82;;;117.25;;
35745;SDS011;21870;42.812;74.628;2024-01-16T10:20:08;194.90;;;114.70;;
35745;SDS011;21870;42.812;74.628;2024-01-16T10:22:39;193.82;;;113.32;;
35745;SDS011;21870;42.812;74.628;2024-01-16T10:25:09;188.55;;;106.85;;
35745;SDS011;21870;42.812;74.628;2024-01-16T10:27:44;177.23;;;100.57;;
35745;SDS011;21870;42.812;74.628;2024-01-16T10:30:11;186.13;;;104.68;;
35745;SDS011;21870;42.812;74.628;2024-01-16T10:32:38;161.73;;;102.15;;
35745;SDS011;21870;42.812;74.628;2024-01-16T10:35:11;159.68;;;104.05;;
35745;SDS011;21870;42.812;74.628;2024-01-16T10:37:42;158.98;;;102.40;;
35745;SDS011;21870;42.812;74.628;2024-01-16T10:40:09;149.95;;;97.50;;
35745;SDS011;21870;42.812;74.628;2024-01-16T10:42:36;146.45;;;95.10;;
35745;SDS011;21870;42.812;74.628;2024-01-16T10:45:04;133.52;;;89.95;;
35745;SDS011;21870;42.812;74.628;2024-01-16T10:47:31;139.52;;;90.55;;
35745;SDS011;21870;42.812;74.628;2024-01-16T10:50:02;133.98;;;90.82;;
35745;SDS011;21870;42.812;74.628;2024-01-16T10:52:30;132.10;;;85.53;;
35745;SDS011;21870;42.812;74.628;2024-01-16T10:54:59;135.68;;;92.22;;
35745;SDS011;21870;42.812;74.628;2024-01-16T10:57:31;131.38;;;90.70;;
35745;SDS011;21870;42.812;74.628;2024-01-16T11:00:02;129.98;;;86.93;;
35745;SDS011;21870;42.812;74.628;2024-01-16T11:02:38;123.03;;;84.18;;
35745;SDS011;21870;42.812;74.628;2024-01-16T11:05:16;138.20;;;90.63;;
35745;SDS011;21870;42.812;74.628;2024-01-16T11:07:43;127.55;;;84.80;;
35745;SDS011;21870;42.812;74.628;2024-01-16T11:10:09;123.68;;;81.20;;
35745;SDS011;21870;42.812;74.628;2024-01-16T11:12:37;127.03;;;85.32;;
35745;SDS011;21870;42.812;74.628;2024-01-16T11:15:07;125.05;;;82.60;;
35745;SDS011;21870;42.812;74.628;2024-01-16T11:17:37;133.65;;;88.03;;
35745;SDS011;21870;42.812;74.628;2024-01-16T11:20:05;130.32;;;88.53;;
35745;SDS011;21870;42.812;74.628;2024-01-16T11:22:38;141.60;;;93.95;;
35745;SDS011;21870;42.812;74.628;2024-01-16T11:25:09;125.22;;;87.45;;
35745;SDS011;21870;42.812;74.628;2024-01-16T11:27:38;131.82;;;88.57;;
35745;SDS011;21870;42.812;74.628;2024-01-16T11:30:05;121.43;;;85.88;;
35745;SDS011;21870;42.812;74.628;2024-01-16T11:32:33;127.32;;;89.80;;
35745;SDS011;21870;42.812;74.628;2024-01-16T11:35:08;132.00;;;87.68;;
35745;SDS011;21870;42.812;74.628;2024-01-16T11:37:36;129.98;;;88.93;;
35745;SDS011;21870;42.812;74.628;2024-01-16T11:42:46;135.52;;;94.20;;
35745;SDS011;21870;42.812;74.628;2024-01-16T11:45:47;132.88;;;85.05;;
35745;SDS011;21870;42.812;74.628;2024-01-16T11:48:09;131.60;;;85.97;;
35745;SDS011;21870;42.812;74.628;2024-01-16T11:50:35;138.55;;;92.00;;
35745;SDS011;21870;42.812;74.628;2024-01-16T11:53:01;137.65;;;88.38;;
35745;SDS011;21870;42.812;74.628;2024-01-16T11:56:11;132.20;;;84.30;;
35745;SDS011;21870;42.812;74.628;2024-01-16T12:01:36;101.85;;;69.65;;
35745;SDS011;21870;42.812;74.628;2024-01-16T12:04:07;100.40;;;69.10;;
35745;SDS011;21870;42.812;74.628;2024-01-16T12:06:37;114.00;;;77.40;;
35745;SDS011;21870;42.812;74.628;2024-01-16T12:09:12;113.82;;;75.10;;
35745;SDS011;21870;42.812;74.628;2024-01-16T12:11:42;107.95;;;74.57;;
35745;SDS011;21870;42.812;74.628;2024-01-16T12:14:12;102.03;;;71.57;;
35745;SDS011;21870;42.812;74.628;2024-01-16T12:16:38;110.65;;;76.35;;
35745;SDS011;21870;42.812;74.628;2024-01-16T12:19:05;112.22;;;75.38;;
35745;SDS011;21870;42.812;74.628;2024-01-16T12:21:34;104.80;;;74.03;;
35745;SDS011;21870;42.812;74.628;2024-01-16T12:24:09;98.90;;;70.93;;
35745;SDS011;21870;42.812;74.628;2024-01-16T12:26:36;102.82;;;70.50;;
35745;SDS011;21870;42.812;74.628;2024-01-16T12:29:03;97.28;;;69.18;;
35745;SDS011;21870;42.812;74.628;2024-01-16T12:31:29;94.85;;;66.38;;
35745;SDS011;21870;42.812;74.628;2024-01-16T12:34:05;99.22;;;68.57;;
35745;SDS011;21870;42.812;74.628;2024-01-16T12:36:32;104.00;;;70.32;;
35745;SDS011;21870;42.812;74.628;2024-01-16T12:38:58;103.68;;;72.07;;
35745;SDS011;21870;42.812;74.628;2024-01-16T12:41:24;111.45;;;72.95;;
35745;SDS011;21870;42.812;74.628;2024-01-16T12:43:53;110.43;;;74.97;;
35745;SDS011;21870;42.812;74.628;2024-01-16T12:46:19;118.35;;;75.40;;
35745;SDS011;21870;42.812;74.628;2024-01-16T12:48:45;107.80;;;74.00;;
35745;SDS011;21870;42.812;74.628;2024-01-16T12:51:23;115.78;;;72.93;;
35745;SDS011;21870;42.812;74.628;2024-01-16T12:53:49;109.80;;;72.28;;
35745;SDS011;21870;42.812;74.628;2024-01-16T12:56:18;120.80;;;73.93;;
35745;SDS011;21870;42.812;74.628;2024-01-16T12:58:48;117.53;;;74.10;;
35745;SDS011;21870;42.812;74.628;2024-01-16T13:01:24;103.22;;;69.18;;
35745;SDS011;21870;42.812;74.628;2024-01-16T13:03:52;114.88;;;73.07;;
35745;SDS011;21870;42.812;74.628;2024-01-16T13:06:19;111.28;;;72.95;;
35745;SDS011;21870;42.812;74.628;2024-01-16T13:08:46;111.13;;;70.38;;
35745;SDS011;21870;42.812;74.628;2024-01-16T13:11:13;100.85;;;71.85;;
35745;SDS011;21870;42.812;74.628;2024-01-16T13:13:46;107.97;;;71.57;;
35745;SDS011;21870;42.812;74.628;2024-01-16T13:16:16;107.50;;;75.53;;
35745;SDS011;21870;42.812;74.628;2024-01-16T13:18:42;106.00;;;72.82;;
35745;SDS011;21870;42.812;74.628;2024-01-16T13:21:08;106.15;;;71.97;;
35745;SDS011;21870;42.812;74.628;2024-01-16T13:23:34;103.00;;;71.03;;
35745;SDS011;21870;42.812;74.628;2024-01-16T13:26:01;111.63;;;74.03;;
35745;SDS011;21870;42.812;74.628;2024-01-16T13:28:29;123.75;;;78.97;;
35745;SDS011;21870;42.812;74.628;2024-01-16T13:30:56;117.93;;;76.85;;
35745;SDS011;21870;42.812;74.628;2024-01-16T13:33:25;121.57;;;80.70;;
35745;SDS011;21870;42.812;74.628;2024-01-16T13:35:54;121.10;;;79.90;;
35745;SDS011;21870;42.812;74.628;2024-01-16T13:38:20;123.38;;;83.82;;
35745;SDS011;21870;42.812;74.628;2024-01-16T13:40:47;137.02;;;85.72;;
35745;SDS011;21870;42.812;74.628;2024-01-16T13:43:13;128.50;;;82.82;;
35745;SDS011;21870;42.812;74.628;2024-01-16T13:45:39;131.23;;;86.63;;
35745;SDS011;21870;42.812;74.628;2024-01-16T13:48:06;132.32;;;85.25;;
35745;SDS011;21870;42.812;74.628;2024-01-16T13:50:33;138.25;;;88.45;;
35745;SDS011;21870;42.812;74.628;2024-01-16T13:53:00;132.10;;;83.65;;
35745;SDS011;21870;42.812;74.628;2024-01-16T13:55:27;131.20;;;83.88;;
35745;SDS011;21870;42.812;74.628;2024-01-16T13:57:53;140.18;;;92.05;;
35745;SDS011;21870;42.812;74.628;2024-01-16T14:00:19;140.93;;;85.65;;